createdAt,value
2022-08-26T00:02:22.486Z,28.97
2022-08-26T00:05:27.944Z,29.23
2022-08-26T00:08:34.486Z,29.08
2022-08-26T00:11:40.798Z,29.18
2022-08-26T00:14:46.991Z,29.09
2022-08-26T00:17:53.498Z,29.19
2022-08-26T00:20:59.391Z,29.27
2022-08-26T00:24:06.072Z,29.34
2022-08-26T00:27:12.727Z,29.15
2022-08-26T00:30:22.926Z,29.19
2022-08-26T00:33:29.924Z,29.34
2022-08-26T00:36:35.561Z,29.23
2022-08-26T00:39:40.977Z,29.30
2022-08-26T00:42:46.557Z,29.42
2022-08-26T00:46:07.292Z,29.49
2022-08-26T00:49:25.132Z,29.20
2022-08-26T00:52:34.963Z,29.37
2022-08-26T00:55:46.245Z,29.24
2022-08-26T00:58:55.272Z,29.45
2022-08-26T01:02:02.791Z,29.55
2022-08-26T01:05:12.372Z,29.57
2022-08-26T01:08:17.730Z,29.77
2022-08-26T01:11:24.539Z,29.96
2022-08-26T01:14:30.917Z,30.00
2022-08-26T01:17:36.892Z,29.97
2022-08-26T01:21:00.241Z,30.15
2022-08-26T01:24:07.202Z,30.22
2022-08-26T01:27:19.730Z,30.38
2022-08-26T01:30:25.988Z,30.38
2022-08-26T01:33:40.012Z,30.36
2022-08-26T01:36:42.819Z,30.31
2022-08-26T01:39:50.161Z,30.56
2022-08-26T01:42:56.799Z,30.60
2022-08-26T01:46:03.475Z,30.86
2022-08-26T01:49:10.188Z,30.63
2022-08-26T01:52:15.823Z,30.59
2022-08-26T01:55:32.342Z,30.62
2022-08-26T01:58:39.878Z,30.67
2022-08-26T02:01:32.367Z,30.83
2022-08-26T02:04:49.917Z,30.86
2022-08-26T02:07:57.652Z,30.92
2022-08-26T02:11:03.439Z,30.96
2022-08-26T02:14:19.084Z,30.95
2022-08-26T02:17:21.153Z,30.84
2022-08-26T02:20:27.971Z,31.10
2022-08-26T02:23:33.645Z,31.24
2022-08-26T02:26:41.370Z,31.17
2022-08-26T02:29:54.110Z,31.44
2022-08-26T02:33:01.897Z,31.46
2022-08-26T02:36:08.212Z,31.71
2022-08-26T02:39:18.013Z,32.03
2022-08-26T02:42:20.650Z,31.97
2022-08-26T02:45:26.024Z,32.06
2022-08-26T02:48:26.119Z,32.05
2022-08-26T02:51:31.810Z,32.20
2022-08-26T02:54:39.553Z,32.15
2022-08-26T02:57:45.082Z,32.36
2022-08-26T03:00:54.754Z,32.16
2022-08-26T03:04:00.564Z,32.30
2022-08-26T03:07:07.255Z,32.26
2022-08-26T03:10:12.693Z,32.32
2022-08-26T03:13:18.515Z,32.06
2022-08-26T03:16:24.723Z,31.87
2022-08-26T03:19:32.235Z,32.09
2022-08-26T03:22:39.396Z,32.49
2022-08-26T03:25:45.722Z,32.75
2022-08-26T03:29:10.089Z,32.76
2022-08-26T03:32:16.014Z,32.78
2022-08-26T03:35:22.519Z,32.84
2022-08-26T03:38:28.330Z,33.01
2022-08-26T03:41:35.314Z,33.28
2022-08-26T03:44:41.965Z,33.49
2022-08-26T03:47:48.825Z,33.40
2022-08-26T03:50:48.806Z,33.43
2022-08-26T03:53:57.129Z,33.50
2022-08-26T03:57:03.341Z,33.69
2022-08-26T04:00:08.353Z,33.64
2022-08-26T04:03:18.638Z,33.63
2022-08-26T04:06:22.429Z,33.97
2022-08-26T04:09:33.076Z,33.98
2022-08-26T04:12:40.771Z,33.62
2022-08-26T04:15:46.916Z,33.78
2022-08-26T04:18:54.067Z,33.79
2022-08-26T04:22:00.400Z,33.99
2022-08-26T04:25:06.868Z,34.15
2022-08-26T04:28:13.118Z,34.15
2022-08-26T04:31:19.505Z,34.57
2022-08-26T04:34:27.272Z,34.65
2022-08-26T04:37:32.632Z,34.53
2022-08-26T04:40:38.460Z,34.55
2022-08-26T04:43:45.801Z,34.40
2022-08-26T04:46:51.836Z,34.66
2022-08-26T04:49:59.992Z,34.64
2022-08-26T04:52:58.798Z,34.69
2022-08-26T04:56:05.079Z,34.87
2022-08-26T04:59:16.674Z,35.06
2022-08-26T05:02:18.706Z,35.06
2022-08-26T05:05:25.123Z,35.32
2022-08-26T05:08:32.073Z,35.58
2022-08-26T05:11:38.439Z,35.30
2022-08-26T05:14:43.829Z,34.55
2022-08-26T05:17:49.301Z,34.20
2022-08-26T05:21:00.098Z,34.30
2022-08-26T05:24:05.006Z,34.07
2022-08-26T05:27:12.511Z,33.76
2022-08-26T05:30:18.365Z,33.85
2022-08-26T05:33:24.325Z,33.59
2022-08-26T05:36:32.990Z,33.43
2022-08-26T05:39:41.261Z,33.53
2022-08-26T05:42:42.500Z,33.57
2022-08-26T05:45:53.466Z,33.73
2022-08-26T05:49:02.070Z,33.74
2022-08-26T05:52:07.572Z,33.52
2022-08-26T05:55:14.921Z,33.52
2022-08-26T05:58:22.295Z,33.45
2022-08-26T06:01:35.848Z,33.21
2022-08-26T06:04:41.009Z,33.02
2022-08-26T06:08:04.404Z,33.16
2022-08-26T06:11:18.678Z,32.68
2022-08-26T06:14:22.201Z,32.71
2022-08-26T06:17:31.760Z,32.92
2022-08-26T06:20:38.275Z,32.61
2022-08-26T06:24:02.741Z,32.84
2022-08-26T06:27:12.316Z,32.50
2022-08-26T06:30:19.222Z,32.70
2022-08-26T06:33:24.301Z,32.33
2022-08-26T06:36:40.173Z,32.62
2022-08-26T06:39:47.758Z,31.82
2022-08-26T06:42:55.140Z,32.30
2022-08-26T06:46:01.875Z,32.19
2022-08-26T06:49:09.169Z,31.68
2022-08-26T06:52:21.166Z,32.03
2022-08-26T06:55:27.114Z,31.79
2022-08-26T06:58:31.156Z,31.49
2022-08-26T07:01:42.944Z,31.46
2022-08-26T07:04:51.632Z,31.46
2022-08-26T07:07:59.333Z,31.10
2022-08-26T07:11:05.910Z,30.77
2022-08-26T07:14:12.482Z,31.13
2022-08-26T07:17:19.470Z,30.68
2022-08-26T07:20:25.912Z,31.11
2022-08-26T07:23:31.984Z,31.22
2022-08-26T07:26:45.507Z,30.41
2022-08-26T07:29:53.865Z,30.38
2022-08-26T07:33:01.382Z,30.66
2022-08-26T07:36:06.546Z,31.14
2022-08-26T07:39:13.233Z,30.86
2022-08-26T07:42:22.876Z,30.91
2022-08-26T07:45:28.722Z,30.71
2022-08-26T07:48:35.459Z,29.94
2022-08-26T07:51:44.474Z,29.84
2022-08-26T07:54:52.225Z,29.67
2022-08-26T07:57:53.593Z,29.24
2022-08-26T08:00:58.619Z,28.37
2022-08-26T08:04:25.578Z,28.60
2022-08-26T08:07:44.232Z,28.70
2022-08-26T08:10:40.628Z,28.23
2022-08-26T08:13:46.291Z,27.34
2022-08-26T08:16:54.610Z,28.16
2022-08-26T08:20:00.384Z,28.31
2022-08-26T08:23:09.977Z,27.85
2022-08-26T08:26:16.954Z,28.68
2022-08-26T08:29:23.979Z,27.83
2022-08-26T08:32:28.805Z,27.83
2022-08-26T08:35:35.101Z,28.13
2022-08-26T08:38:43.724Z,28.00
2022-08-26T08:42:15.800Z,27.55
2022-08-26T08:45:38.389Z,27.50
2022-08-26T08:48:48.069Z,27.91
2022-08-26T08:52:06.883Z,27.19
2022-08-26T08:55:14.801Z,27.42
2022-08-26T08:58:22.641Z,27.88
2022-08-26T09:01:45.121Z,27.04
2022-08-26T09:05:17.065Z,27.35
2022-08-26T09:08:41.664Z,27.22
2022-08-26T09:11:47.280Z,26.80
2022-08-26T09:14:53.983Z,26.22
2022-08-26T09:18:19.480Z,26.29
2022-08-26T09:21:27.541Z,26.67
2022-08-26T09:24:37.299Z,26.80
2022-08-26T09:28:02.954Z,27.68
2022-08-26T09:31:36.322Z,27.47
2022-08-26T09:34:43.452Z,27.10
2022-08-26T09:37:57.925Z,27.49
2022-08-26T09:41:18.450Z,26.60
2022-08-26T09:44:34.541Z,27.50
2022-08-26T09:47:50.693Z,27.78
2022-08-26T09:51:07.969Z,25.35
2022-08-26T09:54:14.991Z,24.68
2022-08-26T09:57:32.348Z,25.33
2022-08-26T10:00:59.529Z,25.75
2022-08-26T10:04:06.184Z,25.54
2022-08-26T10:07:19.016Z,25.14
2022-08-26T10:10:29.575Z,25.33
2022-08-26T10:13:48.715Z,25.30
2022-08-26T10:17:18.348Z,25.90
2022-08-26T10:20:32.076Z,25.13
2022-08-26T10:23:43.951Z,26.05
2022-08-26T10:26:58.181Z,25.38
2022-08-26T10:30:08.550Z,24.89
2022-08-26T10:33:25.622Z,25.04
2022-08-26T10:40:25.524Z,24.94
2022-08-26T10:43:43.794Z,25.85
2022-08-26T10:46:53.944Z,26.09
2022-08-26T10:50:00.042Z,26.15
2022-08-26T10:53:25.155Z,25.94
2022-08-26T10:56:56.374Z,25.95
2022-08-26T11:00:52.260Z,26.55
2022-08-26T11:04:05.556Z,25.89
2022-08-26T11:07:53.261Z,25.96
2022-08-26T11:11:14.621Z,25.91
2022-08-26T11:14:53.602Z,25.91
2022-08-26T11:18:20.052Z,25.66
2022-08-26T11:22:04.553Z,26.08
2022-08-26T11:25:17.620Z,25.85
2022-08-26T11:28:24.289Z,25.77
2022-08-26T11:31:43.096Z,25.51
2022-08-26T11:35:08.115Z,25.11
2022-08-26T11:38:20.210Z,24.97
2022-08-26T11:41:32.658Z,25.33
2022-08-26T11:44:49.593Z,25.70
2022-08-26T11:47:49.466Z,25.26
2022-08-26T11:50:55.734Z,25.24
2022-08-26T11:54:01.639Z,25.85
2022-08-26T11:57:09.475Z,25.98
2022-08-26T12:00:22.521Z,26.95
2022-08-26T12:03:24.381Z,27.14
2022-08-26T12:06:38.901Z,26.65
2022-08-26T12:09:40.102Z,27.76
2022-08-26T12:12:49.231Z,27.53
2022-08-26T12:15:55.962Z,28.31
2022-08-26T12:19:03.222Z,28.16
2022-08-26T12:22:16.846Z,28.24
2022-08-26T12:25:22.988Z,28.21
2022-08-26T12:28:28.300Z,27.44
2022-08-26T12:31:48.475Z,27.37
2022-08-26T12:35:02.036Z,26.98
2022-08-26T12:38:09.435Z,26.79
2022-08-26T12:41:15.971Z,25.76
2022-08-26T12:44:21.677Z,25.03
2022-08-26T12:47:46.621Z,26.18
2022-08-26T12:51:01.335Z,26.00
2022-08-26T12:54:00.313Z,26.72
2022-08-26T12:57:05.905Z,26.73
2022-08-26T13:00:32.122Z,26.21
2022-08-26T13:03:53.752Z,26.96
2022-08-26T13:07:01.547Z,28.05
2022-08-26T13:10:10.198Z,27.32
2022-08-26T13:13:15.927Z,27.57
2022-08-26T13:16:22.757Z,27.10
2022-08-26T13:19:34.278Z,26.86
2022-08-26T13:25:45.538Z,26.31
2022-08-26T13:29:01.976Z,25.78
2022-08-26T13:31:58.908Z,25.58
2022-08-26T13:35:06.120Z,26.22
2022-08-26T13:38:11.968Z,26.15
2022-08-26T13:41:28.918Z,25.28
2022-08-26T13:44:26.544Z,25.15
2022-08-26T13:47:32.625Z,25.28
2022-08-26T13:50:47.124Z,25.81
2022-08-26T13:53:53.603Z,25.76
2022-08-26T13:56:59.094Z,25.69
2022-08-26T14:00:06.566Z,25.86
2022-08-26T14:03:13.681Z,25.99
2022-08-26T14:06:19.170Z,26.21
2022-08-26T14:09:23.961Z,26.28
2022-08-26T14:12:30.838Z,26.33
2022-08-26T14:15:37.413Z,26.04
2022-08-26T14:18:50.941Z,25.24
2022-08-26T14:21:56.099Z,25.57
2022-08-26T14:25:03.591Z,25.62
2022-08-26T14:28:11.010Z,25.02
2022-08-26T14:31:18.344Z,25.32
2022-08-26T14:34:23.935Z,25.41
2022-08-26T14:37:28.863Z,25.73
2022-08-26T14:40:37.769Z,26.60
2022-08-26T14:43:41.644Z,26.09
2022-08-26T14:46:56.718Z,25.31
2022-08-26T14:50:02.611Z,25.64
2022-08-26T14:53:26.083Z,25.52
2022-08-26T14:56:31.732Z,25.38
2022-08-26T14:59:36.530Z,25.48
2022-08-26T15:02:45.306Z,26.00
2022-08-26T15:05:52.960Z,25.44
2022-08-26T15:08:59.798Z,25.64
2022-08-26T15:12:05.561Z,25.97
2022-08-26T15:15:11.588Z,26.16
2022-08-26T15:18:17.320Z,26.12
2022-08-26T15:21:22.977Z,26.36
2022-08-26T15:24:29.959Z,26.76
2022-08-26T15:27:35.817Z,25.70
2022-08-26T15:30:34.612Z,25.76
2022-08-26T15:33:41.568Z,26.08
2022-08-26T15:36:46.663Z,27.00
2022-08-26T15:39:52.780Z,26.90
2022-08-26T15:43:17.612Z,27.38
2022-08-26T15:46:08.798Z,27.40
2022-08-26T15:49:23.017Z,27.31
2022-08-26T15:52:28.530Z,27.83
2022-08-26T15:55:27.090Z,28.24
2022-08-26T15:58:27.473Z,28.91
2022-08-26T16:01:33.429Z,28.60
2022-08-26T16:04:39.604Z,28.73
2022-08-26T16:07:49.604Z,28.88
2022-08-26T16:11:03.423Z,28.71
2022-08-26T16:14:07.450Z,28.95
2022-08-26T16:17:14.053Z,29.28
2022-08-26T16:20:21.156Z,29.92
2022-08-26T16:23:27.361Z,30.21
2022-08-26T16:26:42.226Z,30.29
2022-08-26T16:29:48.060Z,30.09
2022-08-26T16:32:47.862Z,29.37
2022-08-26T16:35:52.748Z,29.44
2022-08-26T16:39:03.141Z,29.51
2022-08-26T16:42:08.530Z,29.36
2022-08-26T16:45:14.297Z,29.57
2022-08-26T16:48:20.670Z,29.55
2022-08-26T16:51:30.292Z,29.63
2022-08-26T16:54:35.638Z,29.84
2022-08-26T16:57:41.372Z,29.98
2022-08-26T17:00:49.110Z,30.19
2022-08-26T17:03:54.979Z,30.36
2022-08-26T17:07:01.804Z,30.76
2022-08-26T17:10:07.567Z,31.23
2022-08-26T17:13:25.953Z,31.74
2022-08-26T17:16:26.998Z,32.16
2022-08-26T17:19:40.728Z,32.54
2022-08-26T17:22:42.115Z,32.88
2022-08-26T17:25:48.842Z,33.17
2022-08-26T17:28:53.469Z,33.27
2022-08-26T17:31:59.364Z,33.61
2022-08-26T17:35:05.195Z,34.87
2022-08-26T17:38:11.283Z,35.80
2022-08-26T17:41:19.651Z,36.85
2022-08-26T17:44:25.048Z,39.04
2022-08-26T17:47:30.796Z,39.64
2022-08-26T17:50:37.895Z,39.53
2022-08-26T17:53:37.371Z,40.13
2022-08-26T17:56:33.069Z,41.33
2022-08-26T17:59:39.168Z,43.00
2022-08-26T18:02:47.582Z,44.41
2022-08-26T18:05:53.679Z,45.07
2022-08-26T18:08:59.438Z,45.48
2022-08-26T18:12:05.096Z,45.69
2022-08-26T18:15:11.336Z,45.22
2022-08-26T18:18:17.413Z,44.70
2022-08-26T18:21:30.167Z,44.44
2022-08-26T18:24:37.040Z,43.60
2022-08-26T18:27:43.395Z,43.16
2022-08-26T18:30:41.742Z,42.89
2022-08-26T18:33:50.027Z,42.34
2022-08-26T18:36:55.195Z,40.98
2022-08-26T18:40:00.291Z,40.67
2022-08-26T18:42:59.409Z,39.81
2022-08-26T18:45:45.572Z,39.22
2022-08-26T18:48:38.940Z,38.79
2022-08-26T18:51:30.947Z,38.30
2022-08-26T18:54:30.225Z,38.36
2022-08-26T18:57:36.775Z,38.27
2022-08-26T19:00:42.291Z,37.45
2022-08-26T19:03:47.580Z,37.31
2022-08-26T19:06:53.601Z,36.88
2022-08-26T19:09:59.357Z,36.63
2022-08-26T19:13:05.475Z,35.92
2022-08-26T19:16:12.742Z,35.80
2022-08-26T19:19:11.253Z,35.78
2022-08-26T19:22:04.136Z,35.30
2022-08-26T19:25:11.089Z,35.87
2022-08-26T19:28:17.255Z,35.58
2022-08-26T19:31:24.290Z,35.36
2022-08-26T19:34:30.905Z,35.29
2022-08-26T19:37:30.258Z,35.56
2022-08-26T19:40:23.663Z,35.17
2022-08-26T19:43:28.494Z,35.20
2022-08-26T19:49:34.751Z,34.79
2022-08-26T19:52:30.043Z,34.62
2022-08-26T19:55:35.858Z,33.99
2022-08-26T19:58:42.155Z,34.42
2022-08-26T20:01:47.579Z,34.27
2022-08-26T20:04:55.507Z,34.15
2022-08-26T20:08:02.689Z,34.69
2022-08-26T20:11:07.836Z,34.55
2022-08-26T20:14:06.712Z,34.71
2022-08-26T20:16:58.853Z,34.75
2022-08-26T20:20:32.588Z,35.01
2022-08-26T20:23:29.186Z,34.81
2022-08-26T20:26:35.203Z,34.64
2022-08-26T20:29:42.053Z,34.57
2022-08-26T20:32:47.661Z,34.17
2022-08-26T20:35:54.127Z,33.80
2022-08-26T20:38:59.764Z,34.71
2022-08-26T20:42:04.554Z,33.53
2022-08-26T20:45:10.815Z,33.84
2022-08-26T20:48:15.711Z,33.85
2022-08-26T20:51:21.584Z,33.28
2022-08-26T20:54:28.528Z,33.09
2022-08-26T20:57:35.219Z,32.98
2022-08-26T21:00:40.644Z,32.77
2022-08-26T21:03:48.049Z,32.26
2022-08-26T21:06:53.860Z,32.11
2022-08-26T21:09:59.994Z,32.65
2022-08-26T21:13:06.440Z,32.41
2022-08-26T21:16:12.629Z,32.30
2022-08-26T21:19:19.335Z,32.12
2022-08-26T21:22:25.178Z,32.20
2022-08-26T21:25:30.261Z,32.20
2022-08-26T21:28:35.245Z,32.65
2022-08-26T21:31:46.465Z,32.68
2022-08-26T21:34:51.218Z,32.64
2022-08-26T21:37:56.234Z,32.86
2022-08-26T21:41:23.488Z,32.50
2022-08-26T21:44:29.704Z,32.43
2022-08-26T21:47:38.786Z,32.20
2022-08-26T21:50:44.511Z,32.08
2022-08-26T21:53:50.249Z,32.08
2022-08-26T21:56:57.458Z,32.13
2022-08-26T21:59:57.667Z,32.06
2022-08-26T22:03:05.010Z,31.28
2022-08-26T22:06:09.946Z,31.42
2022-08-26T22:09:16.341Z,30.66
2022-08-26T22:12:17.828Z,30.91
2022-08-26T22:15:05.063Z,30.46
2022-08-26T22:17:58.181Z,30.39
2022-08-26T22:20:53.043Z,30.38
2022-08-26T22:23:51.178Z,29.67
2022-08-26T22:27:00.093Z,29.86
2022-08-26T22:30:05.149Z,29.46
2022-08-26T22:33:11.069Z,29.16
2022-08-26T22:36:16.275Z,28.76
2022-08-26T22:39:21.284Z,29.24
2022-08-26T22:42:26.792Z,29.17
2022-08-26T22:45:31.560Z,29.67
2022-08-26T22:48:39.610Z,29.19
2022-08-26T22:51:45.299Z,29.48
2022-08-26T22:54:50.050Z,29.22
2022-08-26T22:57:57.893Z,29.32
2022-08-26T23:01:05.839Z,29.54
2022-08-26T23:04:11.827Z,29.56
2022-08-26T23:07:10.730Z,29.64
2022-08-26T23:10:05.727Z,29.31
2022-08-26T23:13:12.059Z,29.20
2022-08-26T23:16:21.032Z,29.38
2022-08-26T23:19:27.768Z,29.60
2022-08-26T23:22:33.937Z,29.80
2022-08-26T23:25:40.432Z,29.88
2022-08-26T23:28:47.487Z,30.05
2022-08-26T23:31:55.841Z,30.16
2022-08-26T23:35:05.237Z,29.90
2022-08-26T23:38:12.702Z,30.09
2022-08-26T23:41:20.700Z,30.05
2022-08-26T23:44:27.382Z,29.97
2022-08-26T23:47:33.491Z,30.08
2022-08-26T23:50:58.387Z,30.09
2022-08-26T23:54:04.564Z,30.18
2022-08-26T23:57:10.953Z,30.45
